createdAt,value
2022-11-17T00:01:10.728Z,71.10
2022-11-17T00:04:17.040Z,71.24
2022-11-17T00:07:21.766Z,71.36
2022-11-17T00:10:28.098Z,71.53
2022-11-17T00:13:52.364Z,71.11
2022-11-17T00:16:58.713Z,70.63
2022-11-17T00:20:20.563Z,71.18
2022-11-17T00:23:47.482Z,71.04
2022-11-17T00:27:03.201Z,70.91
2022-11-17T00:30:31.176Z,70.76
2022-11-17T00:33:55.058Z,70.41
2022-11-17T00:37:01.580Z,70.02
2022-11-17T00:40:09.544Z,70.11
2022-11-17T00:43:16.051Z,70.26
2022-11-17T00:46:22.476Z,70.23
2022-11-17T00:49:28.793Z,70.23
2022-11-17T00:52:33.393Z,70.26
2022-11-17T00:55:39.786Z,70.34
2022-11-17T00:58:46.124Z,70.18
2022-11-17T01:01:52.506Z,70.20
2022-11-17T01:04:58.923Z,70.19
2022-11-17T01:08:03.497Z,70.24
2022-11-17T01:11:12.889Z,70.47
2022-11-17T01:14:24.617Z,70.47
2022-11-17T01:17:31.042Z,70.54
2022-11-17T01:20:37.805Z,70.75
2022-11-17T01:23:45.891Z,70.59
2022-11-17T01:26:52.413Z,70.40
2022-11-17T01:29:58.779Z,70.39
2022-11-17T01:33:03.432Z,70.19
2022-11-17T01:36:13.223Z,70.07
2022-11-17T01:39:19.939Z,70.04
2022-11-17T01:42:28.277Z,69.89
2022-11-17T01:45:35.147Z,70.01
2022-11-17T01:48:42.006Z,70.00
2022-11-17T01:51:52.704Z,69.93
2022-11-17T01:55:00.631Z,69.82
2022-11-17T01:58:10.456Z,69.98
2022-11-17T02:01:17.016Z,70.22
2022-11-17T02:04:23.873Z,70.37
2022-11-17T02:07:34.326Z,70.52
2022-11-17T02:10:42.442Z,70.40
2022-11-17T02:13:53.241Z,70.55
2022-11-17T02:17:06.288Z,70.76
2022-11-17T02:20:23.991Z,70.43
2022-11-17T02:23:58.956Z,70.65
2022-11-17T02:27:45.057Z,70.60
2022-11-17T02:31:13.730Z,70.31
2022-11-17T02:34:30.862Z,70.01
2022-11-17T02:37:49.630Z,69.95
2022-11-17T02:41:00.846Z,69.78
2022-11-17T02:44:12.809Z,69.71
2022-11-17T02:47:24.399Z,69.85
2022-11-17T02:50:32.226Z,70.07
2022-11-17T02:53:39.907Z,70.02
2022-11-17T02:56:46.680Z,69.83
2022-11-17T02:59:53.247Z,69.76
2022-11-17T03:03:17.952Z,69.68
2022-11-17T03:06:36.075Z,69.84
2022-11-17T03:09:51.350Z,69.85
2022-11-17T03:13:03.168Z,69.89
2022-11-17T03:16:23.361Z,70.08
2022-11-17T03:19:34.546Z,70.30
2022-11-17T03:22:50.035Z,70.26
2022-11-17T03:26:00.096Z,70.45
2022-11-17T03:29:11.570Z,70.38
2022-11-17T03:32:19.354Z,70.17
2022-11-17T03:35:30.556Z,69.91
2022-11-17T03:38:39.759Z,69.97
2022-11-17T03:41:49.400Z,70.06
2022-11-17T03:45:00.135Z,70.35
2022-11-17T03:48:14.498Z,70.22
2022-11-17T03:51:23.820Z,70.24
2022-11-17T03:54:30.369Z,70.16
2022-11-17T03:57:45.118Z,69.98
2022-11-17T04:00:53.965Z,69.56
2022-11-17T04:04:00.269Z,69.51
2022-11-17T04:07:04.841Z,69.74
2022-11-17T04:10:13.702Z,70.01
2022-11-17T04:13:37.490Z,69.15
2022-11-17T04:16:44.123Z,69.01
2022-11-17T04:19:50.449Z,69.19
2022-11-17T04:23:08.443Z,69.12
2022-11-17T04:26:32.115Z,69.04
2022-11-17T04:29:38.438Z,68.92
2022-11-17T04:32:43.116Z,68.94
2022-11-17T04:35:54.030Z,69.08
2022-11-17T04:39:01.121Z,68.78
2022-11-17T04:42:07.500Z,68.78
2022-11-17T04:45:12.649Z,68.76
2022-11-17T04:48:18.979Z,68.90
2022-11-17T04:51:23.897Z,68.83
2022-11-17T04:54:30.315Z,68.77
2022-11-17T04:57:37.146Z,68.74
2022-11-17T05:00:43.672Z,68.86
2022-11-17T05:03:51.522Z,68.98
2022-11-17T05:06:57.882Z,68.76
2022-11-17T05:10:02.610Z,68.84
2022-11-17T05:13:26.343Z,68.97
2022-11-17T05:16:50.263Z,69.23
2022-11-17T05:19:57.615Z,68.94
2022-11-17T05:23:21.334Z,68.69
2022-11-17T05:26:29.176Z,68.60
2022-11-17T05:29:35.433Z,68.48
2022-11-17T05:32:41.738Z,68.64
2022-11-17T05:35:46.307Z,68.75
2022-11-17T05:38:53.495Z,68.80
2022-11-17T05:41:59.830Z,68.72
2022-11-17T05:45:04.417Z,68.82
2022-11-17T05:48:11.032Z,68.76
2022-11-17T05:51:18.097Z,68.58
2022-11-17T05:54:24.609Z,68.63
2022-11-17T05:57:33.847Z,68.87
2022-11-17T06:00:41.710Z,68.96
2022-11-17T06:03:55.342Z,69.07
2022-11-17T06:07:02.996Z,69.27
2022-11-17T06:10:11.678Z,69.41
2022-11-17T06:13:20.432Z,69.19
2022-11-17T06:16:32.735Z,69.12
2022-11-17T06:19:42.754Z,68.89
2022-11-17T06:22:50.706Z,68.54
2022-11-17T06:25:58.072Z,68.75
2022-11-17T06:29:05.805Z,68.69
2022-11-17T06:32:13.374Z,68.68
2022-11-17T06:35:20.542Z,68.66
2022-11-17T06:38:26.911Z,68.74
2022-11-17T06:41:32.129Z,68.55
2022-11-17T06:44:38.496Z,68.68
2022-11-17T06:47:43.015Z,68.83
2022-11-17T06:50:52.223Z,69.08
2022-11-17T06:53:58.572Z,68.75
2022-11-17T06:57:03.230Z,68.75
2022-11-17T07:00:11.593Z,68.84
2022-11-17T07:03:17.984Z,68.88
2022-11-17T07:06:22.483Z,68.99
2022-11-17T07:09:28.887Z,69.15
2022-11-17T07:12:36.137Z,69.40
2022-11-17T07:15:42.468Z,69.34
2022-11-17T07:18:47.260Z,69.01
2022-11-17T07:21:53.607Z,69.21
2022-11-17T07:24:58.215Z,69.30
2022-11-17T07:28:04.864Z,69.28
2022-11-17T07:31:12.036Z,69.34
2022-11-17T07:34:18.393Z,69.39
2022-11-17T07:37:23.082Z,69.49
2022-11-17T07:40:29.835Z,69.52
2022-11-17T07:43:36.909Z,69.79
2022-11-17T07:46:43.322Z,69.32
2022-11-17T07:49:49.675Z,69.44
2022-11-17T07:52:56.145Z,69.52
2022-11-17T07:56:06.667Z,69.71
2022-11-17T07:59:17.180Z,69.67
2022-11-17T08:02:28.217Z,69.78
2022-11-17T08:05:41.584Z,69.57
2022-11-17T08:08:49.840Z,69.84
2022-11-17T08:11:57.702Z,70.13
2022-11-17T08:15:04.240Z,70.01
2022-11-17T08:18:10.622Z,69.68
2022-11-17T08:21:15.987Z,69.67
2022-11-17T08:24:22.282Z,69.78
2022-11-17T08:27:27.000Z,69.84
2022-11-17T08:30:34.937Z,70.01
2022-11-17T08:33:41.368Z,70.03
2022-11-17T08:36:47.643Z,70.03
2022-11-17T08:39:52.321Z,70.13
2022-11-17T08:43:01.439Z,70.38
2022-11-17T08:46:12.095Z,70.39
2022-11-17T08:49:18.530Z,70.36
2022-11-17T08:52:24.873Z,70.19
2022-11-17T08:55:29.501Z,70.40
2022-11-17T08:58:39.087Z,70.53
2022-11-17T09:01:45.573Z,70.24
2022-11-17T09:04:52.218Z,70.26
2022-11-17T09:08:22.402Z,70.06
2022-11-17T09:11:26.690Z,69.86
2022-11-17T09:14:32.975Z,69.90
2022-11-17T09:17:37.622Z,69.89
2022-11-17T09:20:45.883Z,69.92
2022-11-17T09:23:52.445Z,69.91
2022-11-17T09:26:58.678Z,69.79
2022-11-17T09:30:05.360Z,69.85
2022-11-17T09:33:11.625Z,69.80
2022-11-17T09:36:18.800Z,69.89
2022-11-17T09:39:25.328Z,69.97
2022-11-17T09:42:32.254Z,69.98
2022-11-17T09:45:41.210Z,70.19
2022-11-17T09:48:56.916Z,70.20
2022-11-17T10:05:44.900Z,69.53
2022-11-17T10:09:00.590Z,69.81
2022-11-17T10:12:17.613Z,69.73
2022-11-17T10:15:30.835Z,69.80
2022-11-17T10:18:39.534Z,69.93
2022-11-17T10:21:46.500Z,69.73
2022-11-17T10:24:55.656Z,69.55
2022-11-17T10:28:01.927Z,69.47
2022-11-17T10:31:14.704Z,69.43
2022-11-17T10:34:40.675Z,69.27
2022-11-17T10:37:57.985Z,69.37
2022-11-17T10:41:04.956Z,69.12
2022-11-17T10:44:23.292Z,69.22
2022-11-17T10:47:33.628Z,69.03
2022-11-17T10:50:51.875Z,68.95
2022-11-17T10:54:22.988Z,68.85
2022-11-17T10:57:29.269Z,68.97
2022-11-17T11:00:34.903Z,68.78
2022-11-17T11:03:51.712Z,68.92
2022-11-17T11:07:10.125Z,69.31
2022-11-17T11:10:20.218Z,68.99
2022-11-17T11:13:32.786Z,68.94
2022-11-17T11:16:42.446Z,68.86
2022-11-17T11:19:54.990Z,68.97
2022-11-17T11:23:09.412Z,69.06
2022-11-17T11:26:31.702Z,69.38
2022-11-17T11:29:53.802Z,69.28
2022-11-17T11:33:10.714Z,69.28
2022-11-17T11:36:32.193Z,69.34
2022-11-17T11:39:50.905Z,69.28
2022-11-17T11:43:01.152Z,69.21
2022-11-17T11:46:17.701Z,69.11
2022-11-17T11:49:36.104Z,69.13
2022-11-17T11:52:47.037Z,68.91
2022-11-17T11:56:01.877Z,68.93
2022-11-17T11:59:20.705Z,69.00
2022-11-17T12:02:32.827Z,68.95
2022-11-17T12:05:44.225Z,69.00
2022-11-17T12:08:59.177Z,68.94
2022-11-17T12:12:15.345Z,68.82
2022-11-17T12:15:38.626Z,68.96
2022-11-17T12:18:44.796Z,69.13
2022-11-17T12:21:57.897Z,69.01
2022-11-17T12:25:15.312Z,69.19
2022-11-17T12:28:39.909Z,68.88
2022-11-17T12:31:47.968Z,69.09
2022-11-17T12:35:26.768Z,68.81
2022-11-17T12:38:45.870Z,68.84
2022-11-17T12:42:11.130Z,68.75
2022-11-17T12:45:17.796Z,68.77
2022-11-17T12:48:34.801Z,68.77
2022-11-17T12:51:53.315Z,68.61
2022-11-17T12:55:04.741Z,68.61
2022-11-17T12:58:21.969Z,68.58
2022-11-17T13:01:37.153Z,68.67
2022-11-17T13:04:49.671Z,68.68
2022-11-17T13:08:20.468Z,68.58
2022-11-17T13:11:27.034Z,68.69
2022-11-17T13:14:33.709Z,68.50
2022-11-17T13:17:43.954Z,68.31
2022-11-17T13:20:51.056Z,68.35
2022-11-17T13:23:57.989Z,68.45
2022-11-17T13:27:07.493Z,68.58
2022-11-17T13:30:23.416Z,68.34
2022-11-17T13:33:34.327Z,68.36
2022-11-17T13:36:57.741Z,68.33
2022-11-17T13:40:19.931Z,68.31
2022-11-17T13:43:29.358Z,68.50
2022-11-17T13:46:38.877Z,68.34
2022-11-17T13:49:45.189Z,68.54
2022-11-17T13:52:54.036Z,68.71
2022-11-17T13:56:00.383Z,69.05
2022-11-17T13:59:06.749Z,68.63
2022-11-17T14:02:30.678Z,68.64
2022-11-17T14:05:37.113Z,68.49
2022-11-17T14:08:45.633Z,68.46
2022-11-17T14:11:52.355Z,68.42
2022-11-17T14:14:58.738Z,68.29
2022-11-17T14:18:22.773Z,68.54
2022-11-17T14:21:30.710Z,68.45
2022-11-17T14:24:37.538Z,68.08
2022-11-17T14:27:44.728Z,68.34
2022-11-17T14:30:54.913Z,68.71
2022-11-17T14:34:01.313Z,68.49
2022-11-17T14:37:10.552Z,68.55
2022-11-17T14:40:19.659Z,68.46
2022-11-17T14:43:26.277Z,68.50
2022-11-17T14:46:32.557Z,68.43
2022-11-17T14:49:38.835Z,68.36
2022-11-17T14:52:43.943Z,68.23
2022-11-17T14:55:50.266Z,68.40
2022-11-17T14:58:56.748Z,68.49
2022-11-17T15:02:03.041Z,68.56
2022-11-17T15:05:08.329Z,68.38
2022-11-17T15:08:14.837Z,68.49
2022-11-17T15:11:21.311Z,68.47
2022-11-17T15:14:27.837Z,68.53
2022-11-17T15:17:34.275Z,68.14
2022-11-17T15:20:40.587Z,67.98
2022-11-17T15:23:45.512Z,67.88
2022-11-17T15:26:51.879Z,67.98
2022-11-17T15:29:56.442Z,68.06
2022-11-17T15:33:02.916Z,68.08
2022-11-17T15:36:11.056Z,68.22
2022-11-17T15:39:18.238Z,68.21
2022-11-17T15:42:24.817Z,68.16
2022-11-17T15:45:29.390Z,68.30
2022-11-17T15:48:38.983Z,68.45
2022-11-17T15:51:45.284Z,68.43
2022-11-17T15:54:49.849Z,68.38
2022-11-17T15:57:57.610Z,68.46
2022-11-17T16:01:17.924Z,68.58
2022-11-17T16:04:24.224Z,68.67
2022-11-17T16:07:28.797Z,68.98
2022-11-17T16:10:35.210Z,69.11
2022-11-17T16:13:40.016Z,69.07
2022-11-17T16:16:48.019Z,69.14
2022-11-17T16:19:54.316Z,68.99
2022-11-17T16:22:59.898Z,69.09
2022-11-17T16:26:06.599Z,69.12
2022-11-17T16:29:13.801Z,69.03
2022-11-17T16:32:20.457Z,68.90
2022-11-17T16:35:26.798Z,69.07
2022-11-17T16:38:31.320Z,69.11
2022-11-17T16:41:39.364Z,68.99
2022-11-17T16:44:45.690Z,68.86
2022-11-17T16:47:50.298Z,68.91
2022-11-17T16:50:56.594Z,69.29
2022-11-17T16:54:02.172Z,69.25
2022-11-17T16:57:08.565Z,68.96
2022-11-17T17:00:17.904Z,68.81
2022-11-17T17:03:24.802Z,68.80
2022-11-17T17:06:31.618Z,68.62
2022-11-17T17:09:38.014Z,68.66
2022-11-17T17:12:42.596Z,68.44
2022-11-17T17:15:48.824Z,68.48
2022-11-17T17:19:00.345Z,68.55
2022-11-17T17:22:06.551Z,68.41
2022-11-17T17:25:14.347Z,68.27
2022-11-17T17:28:20.666Z,68.23
2022-11-17T17:31:26.160Z,68.18
2022-11-17T17:34:32.502Z,68.33
2022-11-17T17:37:37.052Z,68.16
2022-11-17T17:40:43.397Z,68.27
2022-11-17T17:43:48.609Z,67.97
2022-11-17T17:46:57.211Z,68.03
2022-11-17T17:50:03.479Z,68.09
2022-11-17T17:53:08.078Z,67.96
2022-11-17T17:56:15.660Z,68.18
2022-11-17T17:59:21.999Z,68.19
2022-11-17T18:02:26.543Z,68.24
2022-11-17T18:05:33.550Z,68.39
2022-11-17T18:08:40.497Z,68.18
2022-11-17T18:11:49.691Z,68.17
2022-11-17T18:14:56.533Z,68.15
2022-11-17T18:18:01.102Z,68.14
2022-11-17T18:21:09.352Z,68.21
2022-11-17T18:24:15.918Z,67.95
2022-11-17T18:27:22.250Z,67.95
2022-11-17T18:30:26.755Z,68.04
2022-11-17T18:33:33.128Z,68.38
2022-11-17T18:36:37.779Z,68.41
2022-11-17T18:39:44.045Z,68.52
2022-11-17T18:42:50.293Z,68.30
2022-11-17T18:45:54.859Z,68.18
2022-11-17T18:49:01.785Z,68.31
2022-11-17T18:52:09.932Z,68.28
2022-11-17T18:55:16.197Z,68.26
2022-11-17T18:58:22.811Z,68.45
2022-11-17T19:01:30.809Z,68.70
2022-11-17T19:04:37.127Z,68.68
2022-11-17T19:07:43.461Z,68.73
2022-11-17T19:10:54.575Z,68.62
2022-11-17T19:14:02.433Z,68.62
2022-11-17T19:17:09.016Z,68.67
2022-11-17T19:20:16.498Z,68.57
2022-11-17T19:23:23.011Z,68.73
2022-11-17T19:26:31.735Z,68.81
2022-11-17T19:29:40.313Z,68.98
2022-11-17T19:32:46.832Z,69.32
2022-11-17T19:35:53.097Z,69.22
2022-11-17T19:39:01.170Z,69.22
2022-11-17T19:42:07.828Z,69.39
2022-11-17T19:45:14.333Z,69.40
2022-11-17T19:48:20.628Z,69.33
2022-11-17T19:51:25.823Z,69.18
2022-11-17T19:54:32.173Z,69.08
2022-11-17T19:57:36.609Z,69.09
2022-11-17T20:00:43.462Z,69.18
2022-11-17T20:03:50.710Z,69.25
2022-11-17T20:06:57.136Z,69.17
2022-11-17T20:10:03.459Z,69.13
2022-11-17T20:13:09.747Z,68.87
2022-11-17T20:16:15.206Z,68.76
2022-11-17T20:19:21.449Z,68.75
2022-11-17T20:22:27.717Z,68.67
2022-11-17T20:25:32.273Z,68.69
2022-11-17T20:28:39.646Z,68.64
2022-11-17T20:31:46.032Z,68.47
2022-11-17T20:34:50.528Z,68.28
2022-11-17T20:37:56.943Z,68.44
2022-11-17T20:41:04.050Z,68.52
2022-11-17T20:44:24.226Z,68.79
2022-11-17T20:47:30.674Z,68.62
2022-11-17T20:50:35.132Z,68.64
2022-11-17T20:53:42.011Z,68.74
2022-11-17T20:56:48.315Z,68.69
2022-11-17T20:59:52.870Z,68.53
2022-11-17T21:03:00.184Z,68.74
2022-11-17T21:06:07.283Z,68.58
2022-11-17T21:09:13.845Z,68.46
2022-11-17T21:12:20.709Z,68.44
2022-11-17T21:15:27.129Z,68.52
2022-11-17T21:18:33.676Z,68.52
2022-11-17T21:21:40.027Z,68.55
2022-11-17T21:24:44.630Z,68.54
2022-11-17T21:27:50.913Z,68.67
2022-11-17T21:30:55.594Z,68.57
2022-11-17T21:34:03.270Z,68.67
2022-11-17T21:37:09.684Z,68.46
2022-11-17T21:40:19.093Z,68.45
2022-11-17T21:43:25.409Z,68.50
2022-11-17T21:46:31.189Z,68.61
2022-11-17T21:49:37.380Z,68.93
2022-11-17T21:52:43.760Z,68.85
2022-11-17T21:55:48.283Z,68.76
2022-11-17T21:58:57.440Z,68.78
2022-11-17T22:02:03.724Z,68.77
2022-11-17T22:05:09.087Z,68.83
2022-11-17T22:08:15.400Z,68.83
2022-11-17T22:11:35.583Z,68.62
2022-11-17T22:14:42.309Z,68.59
2022-11-17T22:17:46.776Z,68.38
2022-11-17T22:20:54.899Z,68.49
2022-11-17T22:24:01.229Z,68.38
2022-11-17T22:27:05.915Z,68.09
2022-11-17T22:30:14.616Z,68.16
2022-11-17T22:33:21.591Z,68.33
2022-11-17T22:36:27.840Z,68.22
2022-11-17T22:39:34.203Z,68.41
2022-11-17T22:42:40.550Z,68.31
2022-11-17T22:45:45.053Z,68.25
2022-11-17T22:48:51.511Z,68.30
2022-11-17T22:52:07.802Z,68.23
2022-11-17T22:55:14.025Z,67.97
2022-11-17T22:58:20.293Z,68.19
2022-11-17T23:01:24.993Z,68.23
2022-11-17T23:04:31.326Z,68.29
2022-11-17T23:07:36.012Z,68.32
2022-11-17T23:10:42.415Z,68.55
2022-11-17T23:13:46.936Z,68.50
2022-11-17T23:16:53.477Z,68.59
2022-11-17T23:19:59.850Z,68.48
2022-11-17T23:23:04.408Z,68.43
2022-11-17T23:26:12.813Z,68.45
2022-11-17T23:29:19.437Z,68.59
2022-11-17T23:32:25.968Z,68.72
2022-11-17T23:35:30.556Z,68.63
2022-11-17T23:38:37.038Z,68.68
2022-11-17T23:41:43.390Z,68.75
2022-11-17T23:44:47.900Z,68.95
2022-11-17T23:47:54.653Z,68.98
2022-11-17T23:51:04.939Z,68.94
2022-11-17T23:54:14.384Z,68.97
2022-11-17T23:57:20.604Z,68.97
